Time;durP1;ratioP1;P1;durP2;ratioP2;P2;SDS_P1;SDS_P2;PMS_P1;PMS_P2;Temp;Humidity;BMP_temperature;BMP_pressure;BME280_temperature;BME280_humidity;BME280_pressure;Samples;Min_cycle;Max_cycle;Signal;HPM_P1;HPM_P2
2022/04/22 00:00:00;;;;;;;;;;;22.00;37.90;;;;;;5085240;28;20495;-62
2022/04/22 00:02:25;;;;;;;;;;;22.00;37.80;;;;;;5092703;28;19916;-62
2022/04/22 00:04:51;;;;;;;;;;;21.90;37.70;;;;;;5082635;28;20261;-62
2022/04/22 00:07:16;;;;;;;;;;;21.90;37.80;;;;;;5071805;28;19916;-62
2022/04/22 00:09:42;;;;;;;;;;;21.90;37.80;;;;;;5071495;28;19986;-62
2022/04/22 00:12:08;;;;;;;;;;;21.90;37.90;;;;;;5064514;28;19920;-62
2022/04/22 00:14:33;;;;;;;;;;;21.80;37.90;;;;;;5073090;28;20399;-62
2022/04/22 00:16:58;;;;;;;;;;;21.80;37.80;;;;;;5082079;28;19919;-62
2022/04/22 00:19:24;;;;;;;;;;;21.90;38.00;;;;;;5075302;28;20020;-62
2022/04/22 00:21:49;;;;;;;;;;;21.90;37.80;;;;;;5078346;28;19920;-62
2022/04/22 00:24:15;;;;;;;;;;;21.90;37.80;;;;;;5075247;28;19920;-62
2022/04/22 00:26:41;;;;;;;;;;;21.90;37.80;;;;;;5069599;28;19958;-62
2022/04/22 00:29:07;;;;;;;;;;;21.90;37.80;;;;;;5073514;28;19920;-62
2022/04/22 00:31:33;;;;;;;;;;;21.90;37.80;;;;;;5077704;28;20261;-62
2022/04/22 00:33:58;;;;;;;;;;;21.90;37.70;;;;;;5079486;28;19920;-62
2022/04/22 00:36:23;;;;;;;;;;;21.80;37.70;;;;;;5079747;28;19923;-62
2022/04/22 00:38:49;;;;;;;;;;;21.80;37.80;;;;;;5082007;28;20386;-62
2022/04/22 00:41:14;;;;;;;;;;;21.70;37.80;;;;;;5083368;28;19926;-62
2022/04/22 00:43:41;;;;;;;;;;;21.80;37.90;;;;;;5069701;28;20469;-62
2022/04/22 00:46:07;;;;;;;;;;;21.80;37.80;;;;;;5078482;28;19916;-62
2022/04/22 00:48:32;;;;;;;;;;;21.70;37.80;;;;;;5082927;28;19935;-62
2022/04/22 00:50:58;;;;;;;;;;;21.70;37.80;;;;;;5074359;28;19913;-62
2022/04/22 00:53:25;;;;;;;;;;;21.70;37.80;;;;;;5077003;28;20307;-62
2022/04/22 00:55:50;;;;;;;;;;;21.70;37.80;;;;;;5078132;28;19921;-62
2022/04/22 00:58:16;;;;;;;;;;;21.70;37.70;;;;;;5071298;28;19924;-62
2022/04/22 01:00:41;;;;;;;;;;;21.70;37.80;;;;;;5057684;28;19920;-62
2022/04/22 01:03:07;;;;;;;;;;;21.70;37.80;;;;;;5074998;28;19916;-62
2022/04/22 01:11:00;;;;;;;;;;;21.60;37.70;;;;;;5083873;28;19967;-62
2022/04/22 01:13:26;;;;;;;;;;;21.60;37.80;;;;;;5072320;28;19959;-62
2022/04/22 01:15:51;;;;;;;;;;;21.60;37.80;;;;;;5069225;28;20668;-62
2022/04/22 01:18:17;;;;;;;;;;;21.60;37.90;;;;;;5082130;28;20864;-62
2022/04/22 01:20:42;;;;;;;;;;;21.50;37.90;;;;;;5075460;28;20354;-62
2022/04/22 01:23:08;;;;;;;;;;;21.50;37.90;;;;;;5072214;28;20292;-62
2022/04/22 01:25:33;;;;;;;;;;;21.50;38.00;;;;;;5075460;28;20023;-62
2022/04/22 01:27:59;;;;;;;;;;;21.50;38.00;;;;;;5075430;28;19917;-62
2022/04/22 01:30:24;;;;;;;;;;;21.40;38.00;;;;;;5071311;28;19954;-62
2022/04/22 01:32:50;;;;;;;;;;;21.50;37.90;;;;;;5079573;28;19920;-62
2022/04/22 01:35:16;;;;;;;;;;;21.40;38.00;;;;;;5080101;28;19919;-62
2022/04/22 01:37:43;;;;;;;;;;;21.40;38.00;;;;;;5079713;28;20396;-62
2022/04/22 01:40:09;;;;;;;;;;;21.40;38.00;;;;;;5080626;28;20000;-62
2022/04/22 01:42:34;;;;;;;;;;;21.30;38.10;;;;;;5073074;28;19923;-62
2022/04/22 01:45:00;;;;;;;;;;;21.30;38.10;;;;;;5071168;28;19928;-62
2022/04/22 01:47:25;;;;;;;;;;;21.30;38.10;;;;;;5071113;28;19912;-62
2022/04/22 01:49:52;;;;;;;;;;;21.20;38.20;;;;;;5057363;28;20219;-62
2022/04/22 01:52:17;;;;;;;;;;;21.20;38.30;;;;;;5063897;28;20365;-62
2022/04/22 01:54:43;;;;;;;;;;;21.20;38.40;;;;;;5083691;28;19923;-62
2022/04/22 01:57:08;;;;;;;;;;;21.10;38.30;;;;;;5067782;28;19912;-62
2022/04/22 01:59:34;;;;;;;;;;;21.10;38.30;;;;;;5075284;28;19920;-62
2022/04/22 02:01:59;;;;;;;;;;;21.00;38.30;;;;;;5081186;28;19912;-62
2022/04/22 02:04:25;;;;;;;;;;;21.10;38.30;;;;;;5077109;28;20292;-62
2022/04/22 02:06:50;;;;;;;;;;;21.10;38.30;;;;;;5070410;28;19920;-62
2022/04/22 02:09:15;;;;;;;;;;;21.10;38.20;;;;;;5077452;28;19983;-62
2022/04/22 02:11:41;;;;;;;;;;;21.20;38.10;;;;;;5079104;28;19919;-63
2022/04/22 02:14:07;;;;;;;;;;;21.20;38.10;;;;;;5067418;28;19950;-62
2022/04/22 02:16:33;;;;;;;;;;;21.20;38.00;;;;;;5072779;28;20379;-62
2022/04/22 02:18:58;;;;;;;;;;;21.30;38.00;;;;;;5084170;28;19912;-62
2022/04/22 02:21:24;;;;;;;;;;;21.30;37.90;;;;;;5072196;28;19912;-62
2022/04/22 02:23:49;;;;;;;;;;;21.30;37.90;;;;;;5085552;28;20052;-62
2022/04/22 02:26:15;;;;;;;;;;;21.30;37.80;;;;;;5066336;28;19924;-62
2022/04/22 02:28:40;;;;;;;;;;;21.30;37.80;;;;;;5074073;28;19963;-62
2022/04/22 02:31:06;;;;;;;;;;;21.30;37.80;;;;;;5070236;28;20387;-62
2022/04/22 02:33:32;;;;;;;;;;;21.20;37.70;;;;;;5067418;28;19920;-62
2022/04/22 02:35:59;;;;;;;;;;;21.20;37.80;;;;;;5069755;28;19999;-62
2022/04/22 02:38:26;;;;;;;;;;;21.20;37.70;;;;;;5067569;28;19942;-62
2022/04/22 02:46:19;;;;;;;;;;;21.20;37.80;;;;;;5078741;28;19931;-62
2022/04/22 02:48:45;;;;;;;;;;;21.20;37.70;;;;;;5081285;28;19912;-62
2022/04/22 02:51:10;;;;;;;;;;;21.10;37.70;;;;;;5083815;28;19916;-62
2022/04/22 02:53:36;;;;;;;;;;;21.10;37.70;;;;;;5074830;28;19916;-62
2022/04/22 02:56:01;;;;;;;;;;;21.10;37.70;;;;;;5075917;28;19912;-62
2022/04/22 02:58:27;;;;;;;;;;;21.20;37.70;;;;;;5085162;28;19957;-62
2022/04/22 03:00:52;;;;;;;;;;;21.10;37.60;;;;;;5081610;28;19912;-62
2022/04/22 03:03:17;;;;;;;;;;;21.10;37.60;;;;;;5087229;28;19955;-62
2022/04/22 03:05:43;;;;;;;;;;;21.20;37.60;;;;;;5071910;28;20316;-62
2022/04/22 03:08:08;;;;;;;;;;;21.10;37.60;;;;;;5076319;28;19912;-62
2022/04/22 03:10:34;;;;;;;;;;;21.10;37.60;;;;;;5078781;28;19959;-62
2022/04/22 03:12:59;;;;;;;;;;;21.10;37.60;;;;;;5080396;28;20295;-62
2022/04/22 03:15:25;;;;;;;;;;;21.10;37.60;;;;;;5079355;28;20422;-62
2022/04/22 03:17:51;;;;;;;;;;;21.10;37.50;;;;;;5072505;28;20352;-62
2022/04/22 03:20:16;;;;;;;;;;;21.10;37.60;;;;;;5079436;28;19921;-62
2022/04/22 03:22:42;;;;;;;;;;;21.00;37.60;;;;;;5073520;28;20020;-62
2022/04/22 03:25:08;;;;;;;;;;;21.00;37.60;;;;;;5061420;28;19923;-62
2022/04/22 03:27:33;;;;;;;;;;;21.10;37.60;;;;;;5074318;28;19912;-62
2022/04/22 03:29:59;;;;;;;;;;;21.10;37.70;;;;;;5076931;28;20375;-62
2022/04/22 03:32:25;;;;;;;;;;;21.10;37.60;;;;;;5073304;28;19942;-62
2022/04/22 03:34:50;;;;;;;;;;;21.00;37.50;;;;;;5074685;28;20007;-61
2022/04/22 03:37:16;;;;;;;;;;;21.10;37.60;;;;;;5074809;28;19912;-62
2022/04/22 03:39:41;;;;;;;;;;;21.10;37.50;;;;;;5072030;28;19913;-62
2022/04/22 03:42:07;;;;;;;;;;;21.10;37.50;;;;;;5075790;28;19952;-62
2022/04/22 03:44:32;;;;;;;;;;;21.10;37.50;;;;;;5085126;28;19934;-62
2022/04/22 03:46:58;;;;;;;;;;;21.10;37.60;;;;;;5074373;28;20009;-62
2022/04/22 03:49:23;;;;;;;;;;;21.10;37.60;;;;;;5072227;28;19916;-62
2022/04/22 03:51:49;;;;;;;;;;;21.00;37.60;;;;;;5071949;28;20261;-62
2022/04/22 03:54:18;;;;;;;;;;;21.00;37.60;;;;;;5072887;28;20296;-62
2022/04/22 03:59:35;;;;;;;;;;;21.00;37.60;;;;;;5077906;28;19923;-62
2022/04/22 04:02:01;;;;;;;;;;;21.00;37.60;;;;;;5073870;28;20376;-62
2022/04/22 04:04:26;;;;;;;;;;;21.10;37.60;;;;;;5070367;28;20632;-62
2022/04/22 04:06:52;;;;;;;;;;;21.10;37.50;;;;;;5075539;28;19912;-62
2022/04/22 04:17:38;;;;;;;;;;;21.00;37.50;;;;;;5089369;28;19969;-62
2022/04/22 04:25:32;;;;;;;;;;;21.00;37.60;;;;;;5076534;28;19919;-63
2022/04/22 04:27:57;;;;;;;;;;;21.00;37.60;;;;;;5078638;28;19914;-62
2022/04/22 04:30:23;;;;;;;;;;;21.00;37.50;;;;;;5059634;28;19966;-62
2022/04/22 04:32:49;;;;;;;;;;;21.00;37.50;;;;;;5081204;28;19932;-62
2022/04/22 04:35:14;;;;;;;;;;;21.00;37.40;;;;;;5076925;28;19925;-62
2022/04/22 04:37:41;;;;;;;;;;;21.00;37.40;;;;;;5079800;28;20373;-62
2022/04/22 04:40:07;;;;;;;;;;;21.00;37.40;;;;;;5080002;28;20426;-62
2022/04/22 04:42:32;;;;;;;;;;;21.00;38.00;;;;;;5077566;28;19920;-62
2022/04/22 04:44:58;;;;;;;;;;;21.00;37.40;;;;;;5060275;28;803398;-62
2022/04/22 04:47:23;;;;;;;;;;;21.00;37.40;;;;;;5070307;28;19917;-62
2022/04/22 04:49:49;;;;;;;;;;;21.00;37.40;;;;;;5075362;28;19947;-62
2022/04/22 04:52:14;;;;;;;;;;;21.00;37.30;;;;;;5074267;28;19920;-62
2022/04/22 04:54:40;;;;;;;;;;;21.00;37.40;;;;;;5077269;28;19923;-62
2022/04/22 04:57:06;;;;;;;;;;;21.00;37.30;;;;;;5071545;28;19924;-62
2022/04/22 04:59:32;;;;;;;;;;;21.00;37.40;;;;;;5074422;28;19920;-62
2022/04/22 05:01:57;;;;;;;;;;;21.00;37.40;;;;;;5071180;28;19921;-62
2022/04/22 05:04:23;;;;;;;;;;;21.00;37.40;;;;;;5076947;28;19916;-62
2022/04/22 05:06:48;;;;;;;;;;;21.00;37.40;;;;;;5080822;28;19923;-62
2022/04/22 05:09:14;;;;;;;;;;;21.00;37.50;;;;;;5071226;28;19931;-62
2022/04/22 05:11:39;;;;;;;;;;;21.00;37.50;;;;;;5076738;28;19994;-62
2022/04/22 05:14:06;;;;;;;;;;;21.00;37.50;;;;;;5068030;28;19969;-63
2022/04/22 05:16:32;;;;;;;;;;;21.00;37.50;;;;;;5082324;28;20311;-62
2022/04/22 05:18:58;;;;;;;;;;;21.00;37.60;;;;;;5077012;28;19920;-62
2022/04/22 05:21:23;;;;;;;;;;;21.00;37.60;;;;;;5078982;28;19912;-62
2022/04/22 05:23:49;;;;;;;;;;;21.00;37.60;;;;;;5091825;28;19916;-62
2022/04/22 05:26:14;;;;;;;;;;;21.00;37.60;;;;;;5077944;28;19913;-62
2022/04/22 05:28:40;;;;;;;;;;;21.00;37.60;;;;;;5075422;28;19966;-62
2022/04/22 05:33:51;;;;;;;;;;;20.90;37.60;;;;;;5063495;28;19961;-62
2022/04/22 05:36:18;;;;;;;;;;;20.90;37.70;;;;;;5068997;28;19912;-62
2022/04/22 05:38:43;;;;;;;;;;;20.90;37.70;;;;;;5070860;28;19912;-62
2022/04/22 05:41:08;;;;;;;;;;;20.90;37.70;;;;;;5073556;28;19919;-62
2022/04/22 05:43:34;;;;;;;;;;;20.90;37.70;;;;;;5088338;28;19927;-62
2022/04/22 05:45:59;;;;;;;;;;;20.90;37.70;;;;;;5080484;28;19944;-62
2022/04/22 05:48:26;;;;;;;;;;;20.90;37.70;;;;;;5056077;28;20232;-62
2022/04/22 05:50:52;;;;;;;;;;;20.90;37.70;;;;;;5083880;28;19912;-63
2022/04/22 05:53:17;;;;;;;;;;;20.90;37.70;;;;;;5088084;28;19939;-62
2022/04/22 05:55:43;;;;;;;;;;;20.90;37.80;;;;;;5068961;28;20330;-62
2022/04/22 05:58:09;;;;;;;;;;;20.90;37.80;;;;;;5070205;28;20392;-62
2022/04/22 06:00:34;;;;;;;;;;;20.90;37.80;;;;;;5079802;28;19913;-62
2022/04/22 06:03:00;;;;;;;;;;;20.90;37.90;;;;;;5071641;28;20422;-62
2022/04/22 06:05:25;;;;;;;;;;;20.90;38.60;;;;;;5062948;28;19916;-62
2022/04/22 06:10:31;;;;;;;;;;;20.80;37.90;;;;;;5070558;28;20391;-62
2022/04/22 06:10:37;;;;;;;;;;;20.90;37.90;;;;;;5084170;28;19923;-62
2022/04/22 06:13:02;;;;;;;;;;;20.90;38.00;;;;;;5077449;28;20155;-62
2022/04/22 06:15:28;;;;;;;;;;;20.80;37.90;;;;;;5075085;28;19908;-62
2022/04/22 06:17:53;;;;;;;;;;;20.90;38.00;;;;;;5089630;28;19929;-62
2022/04/22 06:20:19;;;;;;;;;;;20.90;38.10;;;;;;5070439;28;20392;-62
2022/04/22 06:22:45;;;;;;;;;;;20.80;38.00;;;;;;5070318;28;19968;-62
2022/04/22 06:25:11;;;;;;;;;;;20.80;38.00;;;;;;5076935;28;19921;-62
2022/04/22 06:27:40;;;;;;;;;;;20.80;38.00;;;;;;5091421;28;19908;-62
2022/04/22 06:30:08;;;;;;;;;;;20.80;38.00;;;;;;5073729;28;20322;-62
2022/04/22 06:32:34;;;;;;;;;;;20.80;38.10;;;;;;5083846;28;20014;-62
2022/04/22 06:35:00;;;;;;;;;;;20.80;38.10;;;;;;5086935;28;19995;-62
2022/04/22 06:37:25;;;;;;;;;;;20.80;38.20;;;;;;5056370;28;19951;-62
2022/04/22 06:48:04;;;;;;;;;;;20.80;38.30;;;;;;5078188;28;19931;-63
2022/04/22 06:50:29;;;;;;;;;;;20.80;38.40;;;;;;5087342;28;20364;-63
2022/04/22 06:52:55;;;;;;;;;;;20.80;38.40;;;;;;5072533;28;20027;-63
2022/04/22 06:55:21;;;;;;;;;;;20.80;38.50;;;;;;5084603;28;19916;-63
2022/04/22 06:57:48;;;;;;;;;;;20.80;38.50;;;;;;5082846;28;19954;-63
2022/04/22 07:00:14;;;;;;;;;;;20.80;38.50;;;;;;5081057;28;20006;-63
2022/04/22 07:02:40;;;;;;;;;;;20.80;38.50;;;;;;5087129;28;19943;-63
2022/04/22 07:05:06;;;;;;;;;;;20.80;38.50;;;;;;5078842;28;20369;-63
2022/04/22 07:07:32;;;;;;;;;;;20.80;38.60;;;;;;5078574;28;19924;-63
2022/04/22 07:09:57;;;;;;;;;;;20.80;38.60;;;;;;5084869;28;19912;-64
2022/04/22 07:12:24;;;;;;;;;;;20.80;38.70;;;;;;5056260;28;20003;-63
2022/04/22 07:14:50;;;;;;;;;;;20.80;38.70;;;;;;5070544;28;19919;-63
2022/04/22 07:17:15;;;;;;;;;;;20.80;38.70;;;;;;5089465;28;19913;-64
2022/04/22 07:19:41;;;;;;;;;;;20.80;38.70;;;;;;5080575;28;20007;-64
2022/04/22 07:22:07;;;;;;;;;;;21.00;38.70;;;;;;5081898;28;19943;-62
2022/04/22 07:24:33;;;;;;;;;;;21.30;38.40;;;;;;5076825;28;20319;-64
2022/04/22 07:26:58;;;;;;;;;;;21.60;38.00;;;;;;5076630;28;19913;-62
2022/04/22 07:29:23;;;;;;;;;;;22.00;37.60;;;;;;5075293;28;19920;-62
2022/04/22 07:31:49;;;;;;;;;;;22.20;37.10;;;;;;5075332;28;19913;-63
2022/04/22 07:34:14;;;;;;;;;;;22.40;36.80;;;;;;5073854;28;19987;-62
2022/04/22 07:36:40;;;;;;;;;;;22.50;36.60;;;;;;5076182;28;19920;-61
2022/04/22 07:39:06;;;;;;;;;;;22.60;36.50;;;;;;5076045;28;19947;-62
2022/04/22 07:41:31;;;;;;;;;;;22.70;36.40;;;;;;5086288;28;20384;-61
2022/04/22 07:46:47;;;;;;;;;;;22.90;35.90;;;;;;5074763;28;19926;-61
2022/04/22 07:49:12;;;;;;;;;;;23.00;35.90;;;;;;5070865;28;19917;-62
2022/04/22 07:51:39;;;;;;;;;;;23.10;36.00;;;;;;5069546;28;19919;-63
2022/04/22 07:54:05;;;;;;;;;;;23.10;36.00;;;;;;5056786;28;20015;-61
2022/04/22 07:56:31;;;;;;;;;;;23.10;36.00;;;;;;5079765;28;19999;-62
2022/04/22 07:58:56;;;;;;;;;;;23.10;36.00;;;;;;5072707;28;19912;-62
2022/04/22 08:01:22;;;;;;;;;;;23.00;35.90;;;;;;5075489;28;20273;-62
2022/04/22 08:03:47;;;;;;;;;;;23.00;35.90;;;;;;5075993;28;19924;-61
2022/04/22 08:06:13;;;;;;;;;;;23.10;36.00;;;;;;5077538;28;20290;-63
2022/04/22 08:08:40;;;;;;;;;;;23.10;36.00;;;;;;5083737;28;19912;-62
2022/04/22 08:11:06;;;;;;;;;;;23.10;36.00;;;;;;5079487;28;19912;-61
2022/04/22 08:13:32;;;;;;;;;;;23.10;36.00;;;;;;5073938;28;20305;-62
2022/04/22 08:15:58;;;;;;;;;;;23.10;36.00;;;;;;5091276;28;19908;-63
2022/04/22 08:18:24;;;;;;;;;;;23.20;36.10;;;;;;5077699;28;19916;-63
2022/04/22 08:20:49;;;;;;;;;;;23.30;36.00;;;;;;5084578;28;19927;-62
2022/04/22 08:23:16;;;;;;;;;;;23.20;35.90;;;;;;5078900;28;19928;-62
2022/04/22 08:25:42;;;;;;;;;;;23.20;36.10;;;;;;5090831;28;19912;-61
2022/04/22 08:28:07;;;;;;;;;;;23.20;36.10;;;;;;5063722;28;19920;-62
2022/04/22 08:30:35;;;;;;;;;;;23.20;36.10;;;;;;5071996;28;19916;-63
2022/04/22 08:33:01;;;;;;;;;;;23.20;36.10;;;;;;5075764;28;20019;-63
2022/04/22 08:35:27;;;;;;;;;;;23.20;36.10;;;;;;5075656;28;19962;-62
2022/04/22 08:37:52;;;;;;;;;;;23.20;36.10;;;;;;5072517;28;20364;-62
2022/04/22 08:40:17;;;;;;;;;;;23.20;36.10;;;;;;5090372;28;19923;-62
2022/04/22 08:42:45;;;;;;;;;;;23.20;36.10;;;;;;5064449;28;19970;-62
2022/04/22 08:45:11;;;;;;;;;;;23.20;36.10;;;;;;5074981;28;19924;-63
2022/04/22 08:50:21;;;;;;;;;;;23.20;36.10;;;;;;5067765;28;19965;-61
2022/04/22 08:52:49;;;;;;;;;;;23.10;36.20;;;;;;5074174;28;19916;-61
2022/04/22 08:55:15;;;;;;;;;;;23.00;36.40;;;;;;5069602;28;19919;-62
2022/04/22 08:57:42;;;;;;;;;;;22.90;36.50;;;;;;5074393;28;19920;-62
2022/04/22 09:00:08;;;;;;;;;;;22.90;36.70;;;;;;5084494;28;19916;-63
2022/04/22 09:02:33;;;;;;;;;;;22.80;36.80;;;;;;5073033;28;20012;-63
2022/04/22 09:04:59;;;;;;;;;;;22.80;36.90;;;;;;5082073;28;19915;-63
2022/04/22 09:07:24;;;;;;;;;;;22.70;37.00;;;;;;5082586;28;20390;-63
2022/04/22 09:09:50;;;;;;;;;;;22.70;37.10;;;;;;5074304;28;19912;-63
2022/04/22 09:12:17;;;;;;;;;;;22.70;37.30;;;;;;5068818;28;20304;-63
2022/04/22 09:14:46;;;;;;;;;;;22.60;37.30;;;;;;5075557;28;19966;-63
2022/04/22 09:17:13;;;;;;;;;;;22.60;37.30;;;;;;5079649;28;19923;-63
2022/04/22 09:19:38;;;;;;;;;;;22.60;37.60;;;;;;5071224;28;19923;-63
2022/04/22 09:22:04;;;;;;;;;;;22.50;37.60;;;;;;5076148;28;20010;-63
2022/04/22 09:24:29;;;;;;;;;;;22.50;37.70;;;;;;5069550;28;19916;-63
2022/04/22 09:27:05;;;;;;;;;;;22.40;37.90;;;;;;5069959;28;19940;-63
2022/04/22 09:29:39;;;;;;;;;;;22.40;37.90;;;;;;5070337;28;19916;-63
2022/04/22 09:32:04;;;;;;;;;;;22.40;38.10;;;;;;5074159;28;19952;-63
2022/04/22 09:34:39;;;;;;;;;;;22.30;38.00;;;;;;5077221;28;19984;-63
2022/04/22 09:42:53;;;;;;;;;;;22.20;38.40;;;;;;5073286;28;19939;-62
2022/04/22 09:45:18;;;;;;;;;;;22.20;38.50;;;;;;5074411;28;20380;-63
2022/04/22 09:47:44;;;;;;;;;;;22.10;38.50;;;;;;5075167;28;19920;-63
2022/04/22 09:50:11;;;;;;;;;;;22.10;38.50;;;;;;5071461;28;19913;-63
2022/04/22 09:52:39;;;;;;;;;;;22.10;38.50;;;;;;5076702;28;19985;-63
2022/04/22 09:55:07;;;;;;;;;;;22.10;38.60;;;;;;5071399;28;19919;-63
2022/04/22 09:57:52;;;;;;;;;;;22.10;39.20;;;;;;5069313;28;19916;-63
2022/04/22 10:00:18;;;;;;;;;;;22.10;38.70;;;;;;5068733;28;19919;-63
2022/04/22 10:02:43;;;;;;;;;;;22.10;38.70;;;;;;5068090;28;19912;-63
2022/04/22 10:05:12;;;;;;;;;;;22.10;38.60;;;;;;5076259;28;19917;-63
2022/04/22 10:07:37;;;;;;;;;;;22.10;38.50;;;;;;5075747;28;19916;-63
2022/04/22 10:10:03;;;;;;;;;;;22.10;38.60;;;;;;5066623;28;19919;-63
2022/04/22 10:12:29;;;;;;;;;;;22.10;38.60;;;;;;5087677;28;19934;-62
2022/04/22 10:14:54;;;;;;;;;;;22.10;38.80;;;;;;5077514;28;19922;-62
2022/04/22 10:17:20;;;;;;;;;;;22.00;39.00;;;;;;5089638;28;20302;-62
2022/04/22 10:19:45;;;;;;;;;;;22.00;39.10;;;;;;5072224;28;19916;-62
2022/04/22 10:22:11;;;;;;;;;;;22.10;39.10;;;;;;5065637;28;20588;-61
2022/04/22 10:24:37;;;;;;;;;;;22.20;39.00;;;;;;5075975;28;19920;-63
2022/04/22 10:27:03;;;;;;;;;;;22.30;38.90;;;;;;5077445;28;19959;-63
2022/04/22 10:29:31;;;;;;;;;;;22.40;38.80;;;;;;5075336;28;20321;-63
2022/04/22 10:31:57;;;;;;;;;;;22.50;38.60;;;;;;5066425;28;19924;-63
2022/04/22 10:34:43;;;;;;;;;;;22.60;38.40;;;;;;5072314;28;19912;-62
2022/04/22 10:37:17;;;;;;;;;;;22.70;38.30;;;;;;5070922;28;20331;-62
2022/04/22 10:39:43;;;;;;;;;;;22.70;38.30;;;;;;5071109;28;19912;-64
2022/04/22 10:42:12;;;;;;;;;;;22.80;38.00;;;;;;5083467;28;19994;-62
2022/04/22 10:47:38;;;;;;;;;;;23.10;37.70;;;;;;5081465;28;19923;-63
2022/04/22 10:50:21;;;;;;;;;;;23.30;37.50;;;;;;5068493;28;20380;-62
2022/04/22 10:53:13;;;;;;;;;;;23.40;37.30;;;;;;5071509;28;19908;-62
2022/04/22 10:55:39;;;;;;;;;;;23.40;37.30;;;;;;5056147;28;20365;-63
2022/04/22 10:58:14;;;;;;;;;;;23.30;37.30;;;;;;5089706;28;19915;-63
2022/04/22 11:00:42;;;;;;;;;;;23.30;37.40;;;;;;5075338;28;19916;-63
2022/04/22 11:03:09;;;;;;;;;;;23.30;37.30;;;;;;5067139;28;19920;-63
2022/04/22 11:05:35;;;;;;;;;;;23.30;37.30;;;;;;5069896;28;19913;-63
2022/04/22 11:08:01;;;;;;;;;;;23.30;37.40;;;;;;5072657;28;19917;-60
2022/04/22 11:10:45;;;;;;;;;;;23.20;37.50;;;;;;5094176;28;19915;-63
2022/04/22 11:13:27;;;;;;;;;;;23.20;37.50;;;;;;5068275;28;19916;-63
2022/04/22 11:15:56;;;;;;;;;;;23.30;37.50;;;;;;5071256;28;19965;-61
2022/04/22 11:18:21;;;;;;;;;;;23.30;37.50;;;;;;5079904;28;19912;-61
2022/04/22 11:20:50;;;;;;;;;;;23.30;37.70;;;;;;5080131;28;19912;-62
2022/04/22 11:23:16;;;;;;;;;;;23.30;37.60;;;;;;5085618;28;19927;-62
2022/04/22 11:25:42;;;;;;;;;;;23.40;37.60;;;;;;5087982;28;19912;-62
2022/04/22 11:28:07;;;;;;;;;;;23.50;37.40;;;;;;5081237;28;19920;-62
2022/04/22 11:30:33;;;;;;;;;;;23.60;37.30;;;;;;5091418;28;19984;-61
2022/04/22 11:33:17;;;;;;;;;;;23.70;37.20;;;;;;5071364;28;19924;-61
2022/04/22 11:35:43;;;;;;;;;;;23.70;37.00;;;;;;5076588;28;19916;-62
2022/04/22 11:38:09;;;;;;;;;;;23.70;37.00;;;;;;5073347;28;19913;-62
2022/04/22 11:40:39;;;;;;;;;;;23.70;37.10;;;;;;5083862;28;20069;-62
2022/04/22 11:43:07;;;;;;;;;;;23.60;37.30;;;;;;5075489;28;19963;-62
2022/04/22 11:45:34;;;;;;;;;;;23.50;37.30;;;;;;5076007;28;20284;-62
2022/04/22 11:48:05;;;;;;;;;;;23.40;37.50;;;;;;5086091;28;19916;-63
2022/04/22 11:50:31;;;;;;;;;;;23.40;37.60;;;;;;5088771;28;19928;-63
2022/04/22 11:52:56;;;;;;;;;;;23.30;37.70;;;;;;5075781;28;19917;-63
2022/04/22 11:55:22;;;;;;;;;;;23.30;37.80;;;;;;5073234;28;19916;-62
2022/04/22 11:57:48;;;;;;;;;;;23.30;37.80;;;;;;5063087;28;19919;-63
2022/04/22 12:05:42;;;;;;;;;;;23.20;38.20;;;;;;5083639;28;19923;-63
2022/04/22 12:08:10;;;;;;;;;;;23.20;38.40;;;;;;5087666;28;19908;-63
2022/04/22 12:10:36;;;;;;;;;;;23.10;38.60;;;;;;5073135;28;20426;-63
2022/04/22 12:13:02;;;;;;;;;;;23.10;38.70;;;;;;5068564;28;19928;-60
2022/04/22 12:15:27;;;;;;;;;;;23.10;38.90;;;;;;5075139;28;19959;-62
2022/04/22 12:17:53;;;;;;;;;;;23.00;38.90;;;;;;5083690;28;19917;-62
2022/04/22 12:20:19;;;;;;;;;;;23.00;39.10;;;;;;5073461;28;19916;-62
2022/04/22 12:22:44;;;;;;;;;;;23.00;39.20;;;;;;5072439;28;20273;-62
2022/04/22 12:25:10;;;;;;;;;;;22.90;39.30;;;;;;5085823;28;19912;-62
2022/04/22 12:27:36;;;;;;;;;;;22.90;39.40;;;;;;5073893;28;19916;-62
2022/04/22 12:30:02;;;;;;;;;;;22.80;39.50;;;;;;5089237;28;20383;-62
2022/04/22 12:32:28;;;;;;;;;;;22.80;39.60;;;;;;5078131;28;19961;-62
2022/04/22 12:35:08;;;;;;;;;;;22.70;39.70;;;;;;5074478;28;19916;-62
2022/04/22 12:37:33;;;;;;;;;;;22.70;39.70;;;;;;5078339;28;19938;-62
2022/04/22 12:40:06;;;;;;;;;;;22.80;39.90;;;;;;5077289;28;20406;-62
2022/04/22 12:42:35;;;;;;;;;;;22.80;40.00;;;;;;5091392;28;19912;-62
2022/04/22 12:53:49;;;;;;;;;;;22.70;40.20;;;;;;5067290;28;19920;-62
2022/04/22 12:56:15;;;;;;;;;;;22.70;40.40;;;;;;5089863;28;20006;-62
2022/04/22 12:58:50;;;;;;;;;;;22.60;40.30;;;;;;5089944;28;19920;-62
2022/04/22 13:01:19;;;;;;;;;;;22.60;40.30;;;;;;5087209;28;19920;-62
2022/04/22 13:03:45;;;;;;;;;;;22.60;40.30;;;;;;5092138;28;19962;-62
2022/04/22 13:06:10;;;;;;;;;;;22.70;40.50;;;;;;5063178;28;20369;-62
2022/04/22 13:08:36;;;;;;;;;;;22.70;40.30;;;;;;5056059;28;20312;-62
2022/04/22 13:11:02;;;;;;;;;;;22.80;40.20;;;;;;5058151;28;19916;-62
2022/04/22 13:13:27;;;;;;;;;;;23.00;40.00;;;;;;5054856;28;19920;-62
2022/04/22 13:15:53;;;;;;;;;;;23.10;39.90;;;;;;5063167;28;19920;-62
2022/04/22 13:18:20;;;;;;;;;;;23.20;39.80;;;;;;5067348;28;19916;-64
2022/04/22 13:20:45;;;;;;;;;;;23.30;39.70;;;;;;5064456;28;20403;-63
2022/04/22 13:23:11;;;;;;;;;;;23.40;39.60;;;;;;5064743;28;19931;-63
2022/04/22 13:25:36;;;;;;;;;;;23.50;39.40;;;;;;5063296;28;19913;-62
2022/04/22 13:28:02;;;;;;;;;;;23.60;39.30;;;;;;5060873;28;20436;-62
2022/04/22 13:30:28;;;;;;;;;;;23.60;39.20;;;;;;5056445;28;20513;-62
2022/04/22 13:32:53;;;;;;;;;;;23.70;39.20;;;;;;5060546;28;20039;-62
2022/04/22 13:35:20;;;;;;;;;;;23.70;39.20;;;;;;5062044;28;19952;-62
2022/04/22 13:37:46;;;;;;;;;;;23.80;39.10;;;;;;5067070;28;19916;-62
2022/04/22 13:40:11;;;;;;;;;;;23.80;39.00;;;;;;5066839;28;19923;-62
2022/04/22 13:42:37;;;;;;;;;;;23.80;39.00;;;;;;5058469;28;21123;-62
2022/04/22 13:53:15;;;;;;;;;;;23.80;39.00;;;;;;5074482;28;19966;-62
2022/04/22 13:55:41;;;;;;;;;;;23.80;39.00;;;;;;5073577;28;20437;-62
2022/04/22 13:58:07;;;;;;;;;;;23.80;39.00;;;;;;5066691;28;20014;-62
2022/04/22 14:00:34;;;;;;;;;;;23.80;39.00;;;;;;5069708;28;19955;-62
2022/04/22 14:02:59;;;;;;;;;;;23.80;39.10;;;;;;5071896;28;19920;-62
2022/04/22 14:05:25;;;;;;;;;;;23.80;39.10;;;;;;5071880;28;19923;-63
2022/04/22 14:07:50;;;;;;;;;;;23.80;39.10;;;;;;5074140;28;19916;-63
2022/04/22 14:10:16;;;;;;;;;;;23.80;39.10;;;;;;5073264;28;19916;-63
2022/04/22 14:12:41;;;;;;;;;;;23.80;39.10;;;;;;5081633;28;19916;-63
2022/04/22 14:15:08;;;;;;;;;;;23.80;39.10;;;;;;5066871;28;19916;-63
2022/04/22 14:17:33;;;;;;;;;;;23.80;39.10;;;;;;5068866;28;19992;-62
2022/04/22 14:19:59;;;;;;;;;;;23.80;39.10;;;;;;5072979;28;20387;-63
2022/04/22 14:22:25;;;;;;;;;;;23.80;39.10;;;;;;5084516;28;19912;-63
2022/04/22 14:24:50;;;;;;;;;;;23.80;39.10;;;;;;5080011;28;19920;-62
2022/04/22 14:27:16;;;;;;;;;;;23.80;39.10;;;;;;5067392;28;19915;-61
2022/04/22 14:29:42;;;;;;;;;;;23.80;39.10;;;;;;5067702;28;19989;-63
2022/04/22 14:32:08;;;;;;;;;;;23.90;39.10;;;;;;5065752;28;20463;-63
2022/04/22 14:34:33;;;;;;;;;;;23.90;39.10;;;;;;5066734;28;19989;-61
2022/04/22 14:36:58;;;;;;;;;;;24.00;39.00;;;;;;5079702;28;20038;-61
2022/04/22 14:39:24;;;;;;;;;;;24.00;39.00;;;;;;5071459;28;19916;-63
2022/04/22 14:41:50;;;;;;;;;;;24.00;38.90;;;;;;5078977;28;20486;-64
2022/04/22 14:44:15;;;;;;;;;;;24.00;38.90;;;;;;5071528;28;19920;-61
2022/04/22 14:46:41;;;;;;;;;;;24.00;39.00;;;;;;5079061;28;20335;-62
2022/04/22 14:49:07;;;;;;;;;;;24.00;39.00;;;;;;5076219;28;19919;-62
2022/04/22 14:51:33;;;;;;;;;;;24.00;39.00;;;;;;5072592;28;19916;-63
2022/04/22 14:53:58;;;;;;;;;;;24.00;39.00;;;;;;5070573;28;19920;-63
2022/04/22 14:56:25;;;;;;;;;;;24.00;39.00;;;;;;5068756;28;20430;-63
2022/04/22 14:58:51;;;;;;;;;;;24.00;39.10;;;;;;5068702;28;19916;-63
2022/04/22 15:01:17;;;;;;;;;;;24.00;39.10;;;;;;5081200;28;19957;-63
2022/04/22 15:03:43;;;;;;;;;;;24.00;39.10;;;;;;5087726;28;20061;-62
2022/04/22 15:06:08;;;;;;;;;;;24.00;39.10;;;;;;5087879;28;19920;-62
2022/04/22 15:08:34;;;;;;;;;;;24.00;39.10;;;;;;5074444;28;19919;-62
2022/04/22 15:10:59;;;;;;;;;;;24.00;39.00;;;;;;5071133;28;19913;-63
2022/04/22 15:13:25;;;;;;;;;;;24.10;39.00;;;;;;5079148;28;19922;-63
2022/04/22 15:15:51;;;;;;;;;;;24.10;38.90;;;;;;5075231;28;19931;-61
2022/04/22 15:26:30;;;;;;;;;;;24.10;38.90;;;;;;5069155;28;19919;-62
2022/04/22 15:28:55;;;;;;;;;;;24.10;38.90;;;;;;5070520;28;19955;-62
2022/04/22 15:31:21;;;;;;;;;;;24.10;38.90;;;;;;5070575;28;19966;-61
2022/04/22 15:33:46;;;;;;;;;;;24.10;38.80;;;;;;5073053;28;19912;-62